sensor_id;sensor_type;location;lat;lon;timestamp;pressure;altitude;pressure_sealevel;temperature;humidity
45939;BME280;31650;48.818;9.116;2023-05-29T00:08:25;97971.56;;;10.96;100.00
45939;BME280;31650;48.818;9.116;2023-05-29T00:23:25;97965.63;;;10.81;100.00
45939;BME280;31650;48.818;9.116;2023-05-29T00:38:25;97959.66;;;10.40;100.00
45939;BME280;31650;48.818;9.116;2023-05-29T00:53:26;97957.84;;;10.28;100.00
45939;BME280;31650;48.818;9.116;2023-05-29T01:08:26;97955.00;;;10.09;100.00
45939;BME280;31650;48.818;9.116;2023-05-29T01:38:27;97953.03;;;9.91;100.00
45939;BME280;31650;48.818;9.116;2023-05-29T01:53:27;97965.69;;;9.52;100.00
45939;BME280;31650;48.818;9.116;2023-05-29T02:08:27;97977.44;;;9.33;100.00
45939;BME280;31650;48.818;9.116;2023-05-29T02:23:27;97964.09;;;9.38;100.00
45939;BME280;31650;48.818;9.116;2023-05-29T02:38:27;97969.34;;;9.13;100.00
45939;BME280;31650;48.818;9.116;2023-05-29T02:53:28;97948.03;;;9.23;100.00
45939;BME280;31650;48.818;9.116;2023-05-29T03:08:28;97953.28;;;8.85;100.00
45939;BME280;31650;48.818;9.116;2023-05-29T03:23:28;97964.34;;;8.50;100.00
45939;BME280;31650;48.818;9.116;2023-05-29T03:38:28;97962.06;;;8.67;100.00
45939;BME280;31650;48.818;9.116;2023-05-29T03:53:29;97965.63;;;8.74;100.00
45939;BME280;31650;48.818;9.116;2023-05-29T04:08:29;97991.06;;;8.86;100.00
45939;BME280;31650;48.818;9.116;2023-05-29T04:23:29;97997.91;;;9.15;100.00
45939;BME280;31650;48.818;9.116;2023-05-29T04:38:29;98009.44;;;9.82;100.00
45939;BME280;31650;48.818;9.116;2023-05-29T04:53:30;98003.78;;;10.68;100.00
45939;BME280;31650;48.818;9.116;2023-05-29T05:08:31;98000.31;;;11.54;100.00
45939;BME280;31650;48.818;9.116;2023-05-29T05:23:32;97986.13;;;12.38;100.00
45939;BME280;31650;48.818;9.116;2023-05-29T05:38:33;97990.97;;;14.36;77.61
45939;BME280;31650;48.818;9.116;2023-05-29T05:53:33;97991.91;;;16.37;66.00
45939;BME280;31650;48.818;9.116;2023-05-29T06:08:33;98016.31;;;17.53;61.28
45939;BME280;31650;48.818;9.116;2023-05-29T06:23:33;98027.03;;;17.92;60.33
45939;BME280;31650;48.818;9.116;2023-05-29T06:38:34;98028.38;;;18.42;60.31
45939;BME280;31650;48.818;9.116;2023-05-29T06:53:35;98056.34;;;18.91;57.30
45939;BME280;31650;48.818;9.116;2023-05-29T07:08:36;98064.69;;;19.27;56.65
45939;BME280;31650;48.818;9.116;2023-05-29T07:23:36;98059.34;;;20.28;55.04
45939;BME280;31650;48.818;9.116;2023-05-29T07:38:36;98062.47;;;20.76;51.38
45939;BME280;31650;48.818;9.116;2023-05-29T07:53:36;98057.75;;;21.90;48.71
45939;BME280;31650;48.818;9.116;2023-05-29T08:08:37;98061.16;;;22.11;46.20
45939;BME280;31650;48.818;9.116;2023-05-29T08:23:37;98054.78;;;24.19;44.22
45939;BME280;31650;48.818;9.116;2023-05-29T08:38:38;98048.38;;;26.05;40.71
45939;BME280;31650;48.818;9.116;2023-05-29T08:53:39;98050.38;;;26.13;39.33
45939;BME280;31650;48.818;9.116;2023-05-29T09:08:40;98053.94;;;25.83;40.11
45939;BME280;31650;48.818;9.116;2023-05-29T09:23:42;98059.34;;;26.99;39.35
45939;BME280;31650;48.818;9.116;2023-05-29T09:38:45;98065.00;;;27.25;38.36
45939;BME280;31650;48.818;9.116;2023-05-29T09:53:46;98058.56;;;27.86;36.10
45939;BME280;31650;48.818;9.116;2023-05-29T10:08:46;98043.38;;;28.81;34.99
45939;BME280;31650;48.818;9.116;2023-05-29T10:23:50;98035.41;;;27.68;35.90
45939;BME280;31650;48.818;9.116;2023-05-29T10:38:51;98027.06;;;29.88;32.43
45939;BME280;31650;48.818;9.116;2023-05-29T10:53:51;98023.97;;;29.05;31.84
45939;BME280;31650;48.818;9.116;2023-05-29T11:08:55;98021.84;;;29.02;31.78
45939;BME280;31650;48.818;9.116;2023-05-29T11:24:00;98022.09;;;29.72;29.24
45939;BME280;31650;48.818;9.116;2023-05-29T11:39:04;98011.53;;;29.90;28.61
45939;BME280;31650;48.818;9.116;2023-05-29T11:54:05;98012.44;;;30.65;26.48
45939;BME280;31650;48.818;9.116;2023-05-29T12:09:06;98001.31;;;30.93;27.32
45939;BME280;31650;48.818;9.116;2023-05-29T12:24:06;98005.41;;;30.22;25.02
45939;BME280;31650;48.818;9.116;2023-05-29T12:39:07;98002.63;;;30.46;26.80
45939;BME280;31650;48.818;9.116;2023-05-29T12:54:11;98010.31;;;30.62;24.09
45939;BME280;31650;48.818;9.116;2023-05-29T13:09:11;98002.38;;;30.88;24.23
45939;BME280;31650;48.818;9.116;2023-05-29T13:24:12;97999.81;;;30.58;24.34
45939;BME280;31650;48.818;9.116;2023-05-29T13:39:13;97976.63;;;30.74;25.52
45939;BME280;31650;48.818;9.116;2023-05-29T13:54:15;97982.09;;;31.48;24.41
45939;BME280;31650;48.818;9.116;2023-05-29T14:09:16;97966.19;;;31.83;23.34
45939;BME280;31650;48.818;9.116;2023-05-29T14:24:17;97964.88;;;32.25;22.46
45939;BME280;31650;48.818;9.116;2023-05-29T14:39:20;97953.97;;;31.19;25.08
45939;BME280;31650;48.818;9.116;2023-05-29T14:54:21;97945.34;;;31.12;25.01
45939;BME280;31650;48.818;9.116;2023-05-29T15:09:21;97953.66;;;31.09;25.28
45939;BME280;31650;48.818;9.116;2023-05-29T15:24:21;97926.31;;;32.25;23.96
45939;BME280;31650;48.818;9.116;2023-05-29T15:39:21;97927.16;;;32.10;24.69
45939;BME280;31650;48.818;9.116;2023-05-29T15:54:22;97927.63;;;31.52;24.28
45939;BME280;31650;48.818;9.116;2023-05-29T16:09:22;97911.03;;;30.78;24.89
45939;BME280;31650;48.818;9.116;2023-05-29T16:24:22;97919.63;;;29.84;26.66
45939;BME280;31650;48.818;9.116;2023-05-29T16:39:25;97899.22;;;30.08;25.77
45939;BME280;31650;48.818;9.116;2023-05-29T16:54:30;97912.09;;;29.63;25.44
45939;BME280;31650;48.818;9.116;2023-05-29T17:09:35;97921.75;;;29.53;26.69
45939;BME280;31650;48.818;9.116;2023-05-29T17:24:35;97926.03;;;28.34;29.66
45939;BME280;31650;48.818;9.116;2023-05-29T17:39:35;97942.38;;;26.94;30.69
45939;BME280;31650;48.818;9.116;2023-05-29T17:54:36;97945.84;;;26.25;30.87
45939;BME280;31650;48.818;9.116;2023-05-29T18:09:36;97947.81;;;25.53;31.46
45939;BME280;31650;48.818;9.116;2023-05-29T18:24:37;97949.97;;;23.97;33.23
45939;BME280;31650;48.818;9.116;2023-05-29T18:39:37;97956.94;;;23.01;35.18
45939;BME280;31650;48.818;9.116;2023-05-29T18:54:37;97967.63;;;21.55;38.29
45939;BME280;31650;48.818;9.116;2023-05-29T19:09:38;97969.94;;;20.74;39.70
45939;BME280;31650;48.818;9.116;2023-05-29T19:24:40;97995.13;;;20.02;42.04
45939;BME280;31650;48.818;9.116;2023-05-29T19:39:40;98013.13;;;19.23;43.86
45939;BME280;31650;48.818;9.116;2023-05-29T19:54:41;98040.47;;;18.36;46.60
45939;BME280;31650;48.818;9.116;2023-05-29T20:09:50;98053.44;;;17.87;48.17
45939;BME280;31650;48.818;9.116;2023-05-29T20:24:53;98079.94;;;16.80;51.19
45939;BME280;31650;48.818;9.116;2023-05-29T20:39:53;98099.66;;;15.94;54.35
45939;BME280;31650;48.818;9.116;2023-05-29T20:54:54;98112.78;;;15.58;56.59
45939;BME280;31650;48.818;9.116;2023-05-29T21:09:54;98122.19;;;15.00;59.59
45939;BME280;31650;48.818;9.116;2023-05-29T21:24:55;98113.66;;;14.56;61.95
45939;BME280;31650;48.818;9.116;2023-05-29T21:39:56;98104.03;;;14.41;64.35
45939;BME280;31650;48.818;9.116;2023-05-29T21:54:57;98109.75;;;14.40;64.29
45939;BME280;31650;48.818;9.116;2023-05-29T22:09:57;98125.25;;;14.11;66.22
45939;BME280;31650;48.818;9.116;2023-05-29T22:24:57;98131.19;;;14.31;64.63
45939;BME280;31650;48.818;9.116;2023-05-29T22:39:59;98130.72;;;14.11;65.76
45939;BME280;31650;48.818;9.116;2023-05-29T22:54:59;98156.44;;;13.44;70.86
45939;BME280;31650;48.818;9.116;2023-05-29T23:09:59;98155.81;;;13.00;74.88
45939;BME280;31650;48.818;9.116;2023-05-29T23:25:00;98140.56;;;13.22;75.00
45939;BME280;31650;48.818;9.116;2023-05-29T23:40:04;98138.84;;;12.98;77.40
45939;BME280;31650;48.818;9.116;2023-05-29T23:55:05;98150.81;;;12.97;80.11
